ADDS METAR Data INFO
IDs: Format: Raw Decoded Include TAF

Data at: 1503 UTC 23 Oct 2017

K05U 231455Z AUTO 00000KT 9SM CLR 02/M07 A3062 RMK A01
K05U 231435Z AUTO 18004KT 10SM CLR M00/M07 A3061 RMK A01
K05U 231415Z AUTO 00000KT 10SM CLR M02/M08 A3061 RMK A01
K05U 231355Z AUTO 19003KT 10SM CLR M02/M08 A3060 RMK A01
K05U 231335Z AUTO 00000KT 10SM CLR M02/M09 A3060 RMK A01
K05U 231315Z AUTO 00000KT 10SM CLR M02/M09 A3060 RMK A01
K05U 231255Z AUTO 00000KT 10SM CLR M01/M08 A3059 RMK A01
K05U 231235Z AUTO 00000KT 10SM CLR M01/M08 A3059 RMK A01
K05U 231215Z AUTO 00000KT 10SM CLR M01/M08 A3059 RMK A01
K05U 231155Z AUTO 00000KT 10SM CLR M01/M08 A3058 RMK A01
K05U 231135Z AUTO 00000KT 10SM CLR 01/M08 A3058 RMK A01
K05U 231115Z AUTO 19005KT 10SM CLR 01/M08 A3058 RMK A01
K05U 231055Z AUTO 00000KT 10SM CLR 01/M08 A3058 RMK A01
K05U 231035Z AUTO 00000KT 10SM CLR M00/M08 A3057 RMK A01
K05U 231015Z AUTO 16003KT 10SM CLR 00/M08 A3056 RMK A01
K05U 230955Z AUTO 00000KT 10SM CLR 01/M08 A3056 RMK A01
K05U 230935Z AUTO 00000KT 10SM CLR M00/M09 A3056 RMK A01
K05U 230915Z AUTO 18004KT 10SM CLR 00/M08 A3056 RMK A01
K05U 230855Z AUTO 00000KT 10SM CLR 01/M08 A3056 RMK A01
K05U 230835Z AUTO 00000KT 10SM CLR 01/M09 A3057 RMK A01
K05U 230815Z AUTO 00000KT 10SM CLR 01/M09 A3057 RMK A01
K05U 230755Z AUTO 00000KT 10SM CLR 01/M10 A3056 RMK A01
K05U 230735Z AUTO 00000KT 10SM CLR 02/M08 A3056 RMK A01
K05U 230715Z AUTO 00000KT 10SM CLR 03/M08 A3055 RMK A01
K05U 230655Z AUTO 00000KT 10SM CLR 03/M08 A3055 RMK A01
K05U 230635Z AUTO 20006KT 10SM CLR 04/M08 A3054 RMK A01
K05U 230615Z AUTO VRB04KT 10SM CLR 03/M09 A3055 RMK A01
K05U 230555Z AUTO 00000KT 10SM CLR 02/M09 A3054 RMK A01
K05U 230535Z AUTO 00000KT 10SM CLR 03/M08 A3054 RMK A01
K05U 230515Z AUTO 00000KT 10SM CLR 04/M08 A3054 RMK A01
K05U 230455Z AUTO 00000KT 10SM CLR 05/M09 A3053 RMK A01
K05U 230435Z AUTO 00000KT 10SM CLR 06/M09 A3052 RMK A01
K05U 230415Z AUTO 00000KT 10SM CLR 07/M10 A3051 RMK A01
K05U 230355Z AUTO 08007KT 10SM CLR 07/M10 A3051 RMK A01
K05U 230335Z AUTO 08008KT 10SM CLR 08/M09 A3051 RMK A01
K05U 230315Z AUTO 13006KT 10SM CLR 09/M10 A3050 RMK A01
K05U 230255Z AUTO 00000KT 10SM CLR 11/M11 A3050 RMK A01
K05U 230235Z AUTO 00000KT 10SM CLR 11/M11 A3049 RMK A01
K05U 230215Z AUTO 00000KT 10SM CLR 12/M11 A3048 RMK A01
K05U 230155Z AUTO 10004KT 10SM CLR 12/M11 A3047 RMK A01
K05U 230135Z AUTO 32007KT 10SM CLR 14/M12 A3047 RMK A01
K05U 230115Z AUTO 31006KT 10SM CLR 15/M12 A3046 RMK A01
K05U 230055Z AUTO 29004KT 10SM CLR 16/M12 A3046 RMK A01
K05U 230035Z AUTO 29005KT 10SM CLR 18/M12 A3046 RMK A01
K05U 230015Z AUTO 30005KT 10SM CLR 18/M12 A3045 RMK A01
K05U 222355Z AUTO 31010KT 10SM CLR 20/M12 A3045 RMK A01
K05U 222335Z AUTO 31008G17KT 10SM CLR 21/M11 A3044 RMK A01
K05U 222315Z AUTO 29008G16KT 10SM CLR 21/M11 A3044 RMK A01
K05U 222255Z AUTO 29008KT 10SM CLR 21/M11 A3044 RMK A01
K05U 222235Z AUTO 30009G16KT 10SM CLR 20/M11 A3044 RMK A01
K05U 222215Z AUTO 30012G18KT 10SM CLR 22/M12 A3042 RMK A01
K05U 222155Z AUTO 27008G16KT 10SM CLR 22/M11 A3042 RMK A01
K05U 222135Z AUTO 28013KT 10SM CLR 23/M12 A3042 RMK A01
K05U 222115Z AUTO 29009G16KT 10SM CLR 22/M12 A3042 RMK A01
K05U 222055Z AUTO VRB07G13KT 230V040 10SM CLR 21/M08 A3043 RMK A01
K05U 222035Z AUTO 23006G18KT 10SM CLR 21/M08 A3043 RMK A01
K05U 222015Z AUTO 24009KT 10SM CLR 21/M07 A3044 RMK A01
K05U 221955Z AUTO 26010G16KT 10SM CLR 20/M08 A3044 RMK A01
K05U 221935Z AUTO 27006G14KT 10SM CLR 18/M06 A3045 RMK A01
K05U 221915Z AUTO 23009G14KT 10SM CLR 18/M05 A3045 RMK A01
K05U 221855Z AUTO 24009KT 10SM CLR 17/M06 A3047 RMK A01
K05U 221835Z AUTO 25010KT 10SM CLR 17/M05 A3047 RMK A01
K05U 221815Z AUTO 25009KT 10SM CLR 16/M05 A3048 RMK A01
K05U 221755Z AUTO VRB05KT 10SM CLR 15/M03 A3048 RMK A01
K05U 221735Z AUTO 21007KT 10SM CLR 15/M02 A3048 RMK A01
K05U 221715Z AUTO 21005KT 10SM CLR 13/M01 A3049 RMK A01
K05U 221655Z AUTO 22005KT 10SM CLR 12/M00 A3048 RMK A01
K05U 221635Z AUTO 21005KT 10SM CLR 11/M01 A3048 RMK A01
K05U 221615Z AUTO 21007KT 10SM CLR 09/M01 A3047 RMK A01
K05U 221555Z AUTO 19007KT 10SM CLR 07/M02 A3048 RMK A01
K05U 221535Z AUTO 21009KT 10SM CLR 05/M02 A3047 RMK A01
K05U 221515Z AUTO 18006KT 10SM CLR 04/M02 A3047 RMK A01
K05U 221455Z AUTO 20004KT 10SM CLR 02/M03 A3046 RMK A01
K05U 221435Z AUTO 20004KT 10SM CLR 01/M03 A3045 RMK A01
K05U 221415Z AUTO 20006KT 10SM CLR M01/M03 A3044 RMK A01
K05U 221355Z AUTO 19005KT 10SM CLR M01/M04 A3044 RMK A01
K05U 221335Z AUTO 21006KT 10SM CLR M02/M04 A3043 RMK A01
K05U 221315Z AUTO 22004KT 10SM CLR M02/M05 A3043 RMK A01
K05U 221255Z AUTO 00000KT 10SM CLR 00/M04 A3042 RMK A01
K05U 221235Z AUTO 21006KT 10SM CLR 01/M03 A3041 RMK A01
K05U 221215Z AUTO 21007KT 10SM CLR 01/M02 A3041 RMK A01
K05U 221155Z AUTO 19007KT 10SM CLR 01/M03 A3041 RMK A01
K05U 221135Z AUTO 19007KT 10SM CLR M00/M03 A3041 RMK A01
K05U 221115Z AUTO 21007KT 10SM CLR M00/M03 A3040 RMK A01
K05U 221055Z AUTO 17003KT 10SM CLR 00/M03 A3040 RMK A01
K05U 221035Z AUTO 26003KT 10SM CLR 00/M03 A3039 RMK A01
K05U 221015Z AUTO 21005KT 10SM CLR 01/M03 A3039 RMK A01
K05U 220955Z AUTO 20007KT 10SM CLR 01/M03 A3039 RMK A01
K05U 220935Z AUTO 20007KT 10SM CLR 01/M03 A3039 RMK A01
K05U 220915Z AUTO 17005KT 10SM CLR 01/M03 A3039 RMK A01
K05U 220855Z AUTO 17005KT 10SM CLR 02/M02 A3039 RMK A01
K05U 220835Z AUTO 13004KT 10SM CLR 00/M04 A3039 RMK A01
K05U 220815Z AUTO 17005KT 10SM CLR 00/M03 A3039 RMK A01
K05U 220755Z AUTO 20007KT 10SM CLR 01/M03 A3038 RMK A01
K05U 220735Z AUTO 19007KT 10SM CLR 01/M03 A3038 RMK A01
K05U 220715Z AUTO 00000KT 10SM CLR 01/M04 A3039 RMK A01
K05U 220655Z AUTO 00000KT 10SM BKN048 02/M03 A3039 RMK A01
K05U 220635Z AUTO 19004KT 10SM OVC050 03/M03 A3039 RMK A01
K05U 220615Z AUTO 17004KT 10SM BKN050 04/M03 A3038 RMK A01
K05U 220555Z AUTO 19005KT 10SM BKN050 04/M02 A3038 RMK A01
K05U 220535Z AUTO 18006KT 10SM FEW049 05/M02 A3038 RMK A01
K05U 220515Z AUTO 00000KT 10SM SCT047 SCT060 05/M02 A3038 RMK A01
K05U 220455Z AUTO 00000KT 10SM OVC048 07/M01 A3038 RMK A01
K05U 220435Z AUTO 00000KT 10SM OVC049 08/M01 A3037 RMK A01
K05U 220415Z AUTO 00000KT 10SM OVC050 08/M01 A3037 RMK A01
K05U 220355Z AUTO 00000KT 10SM BKN049 OVC060 08/M01 A3036 RMK A01
K05U 220335Z AUTO 00000KT 10SM FEW045 OVC060 09/M01 A3036 RMK A01
K05U 220315Z AUTO 00000KT 10SM OVC046 09/M01 A3035 RMK A01